Time;durP1;ratioP1;P1;durP2;ratioP2;P2;SDS_P1;SDS_P2;PMS_P1;PMS_P2;Temp;Humidity;BMP_temperature;BMP_pressure;BME280_temperature;BME280_humidity;BME280_pressure;Samples;Min_cycle;Max_cycle;Signal;HPM_P1;HPM_P2
2021/11/29 00:00:14;;;;;;;43.97;40.73;;;3.90;99.90;;;;;;5012097;28;20924;-79
2021/11/29 00:02:42;;;;;;;43.10;39.97;;;4.00;99.90;;;;;;5011871;28;20912;-79
2021/11/29 00:05:09;;;;;;;43.90;40.50;;;4.00;99.90;;;;;;5011862;28;20450;-79
2021/11/29 00:07:37;;;;;;;43.30;40.20;;;4.00;99.90;;;;;;5011943;28;20533;-82
2021/11/29 00:10:05;;;;;;;44.67;41.10;;;3.90;99.90;;;;;;5011752;28;20458;-84
2021/11/29 00:12:32;;;;;;;40.47;37.33;;;3.80;99.90;;;;;;5011674;28;20494;-87
2021/11/29 00:14:59;;;;;;;42.87;39.80;;;3.80;99.90;;;;;;5012488;28;20457;-90
2021/11/29 00:17:26;;;;;;;41.63;38.77;;;3.70;99.90;;;;;;5019464;28;20559;-90
2021/11/29 00:19:53;;;;;;;42.13;39.23;;;3.60;99.90;;;;;;5011800;28;20967;-87
2021/11/29 00:22:20;;;;;;;41.93;39.03;;;3.60;99.90;;;;;;5012341;28;20546;-88
2021/11/29 00:24:49;;;;;;;41.77;38.97;;;3.60;99.90;;;;;;5012892;28;20457;-89
2021/11/29 00:30:34;;;;;;;41.87;38.87;;;3.60;99.90;;;;;;4962264;28;20444;-84
2021/11/29 00:33:00;;;;;;;43.80;40.63;;;3.60;99.90;;;;;;5015849;28;20461;-80
2021/11/29 00:35:27;;;;;;;42.70;39.63;;;3.50;99.90;;;;;;5011449;28;20477;-76
2021/11/29 00:37:54;;;;;;;45.50;42.27;;;3.50;99.90;;;;;;5013487;28;20454;-86
2021/11/29 00:40:43;;;;;;;48.20;44.03;;;3.50;99.90;;;;;;5015597;28;20453;-88
2021/11/29 00:45:45;;;;;;;48.93;44.80;;;3.50;99.90;;;;;;5023443;28;20488;-79
2021/11/29 00:48:12;;;;;;;47.27;43.47;;;3.60;99.90;;;;;;5031246;28;20970;-81
2021/11/29 00:50:39;;;;;;;47.87;44.07;;;3.50;99.90;;;;;;5030882;28;20821;-81
2021/11/29 00:53:08;;;;;;;49.53;45.33;;;3.50;99.90;;;;;;5030800;28;20456;-80
2021/11/29 00:55:35;;;;;;;49.90;45.80;;;3.50;99.90;;;;;;5030734;28;20460;-78
2021/11/29 00:58:04;;;;;;;49.60;45.57;;;3.60;99.90;;;;;;5030571;28;20526;-80
2021/11/29 01:00:31;;;;;;;50.90;46.67;;;3.60;99.90;;;;;;5030950;28;20456;-78
2021/11/29 01:02:58;;;;;;;48.47;44.60;;;3.60;99.90;;;;;;5030852;28;20460;-78
2021/11/29 01:05:24;;;;;;;49.50;45.17;;;3.60;99.90;;;;;;5030969;28;20451;-78
2021/11/29 01:07:52;;;;;;;49.13;45.10;;;3.60;99.90;;;;;;5030788;28;20457;-78
2021/11/29 01:10:20;;;;;;;50.60;46.43;;;3.60;99.90;;;;;;5030585;28;20583;-81
2021/11/29 01:12:49;;;;;;;50.13;46.13;;;3.60;99.90;;;;;;5031016;28;20880;-87
2021/11/29 01:15:20;;;;;;;50.43;46.10;;;3.60;99.90;;;;;;5031572;28;20469;-85
2021/11/29 01:17:48;;;;;;;49.63;45.43;;;3.60;99.90;;;;;;5031739;28;20483;-85
2021/11/29 01:23:32;;;;;;;50.40;46.33;;;3.60;99.90;;;;;;5008117;28;20522;-84
2021/11/29 01:25:59;;;;;;;50.60;46.43;;;3.60;99.90;;;;;;5032871;28;21229;-82
2021/11/29 01:28:27;;;;;;;49.27;45.10;;;3.60;99.90;;;;;;5034558;28;20453;-78
2021/11/29 01:30:55;;;;;;;49.77;45.60;;;3.60;99.90;;;;;;5034608;28;20812;-78
2021/11/29 01:33:22;;;;;;;50.57;46.23;;;3.70;99.90;;;;;;5034260;28;20445;-79
2021/11/29 01:35:48;;;;;;;49.57;45.47;;;3.70;99.90;;;;;;5034303;28;20554;-83
2021/11/29 01:38:17;;;;;;;49.57;45.40;;;3.70;99.90;;;;;;5034311;28;20462;-80
2021/11/29 01:40:44;;;;;;;51.83;47.17;;;3.60;99.90;;;;;;5034139;28;20974;-82
2021/11/29 01:43:12;;;;;;;50.50;46.23;;;3.60;99.90;;;;;;5034110;28;20441;-80
2021/11/29 01:45:41;;;;;;;51.40;47.20;;;3.70;99.90;;;;;;5033796;28;20526;-79
2021/11/29 01:48:10;;;;;;;51.57;46.83;;;3.60;99.90;;;;;;5034118;28;20946;-79
2021/11/29 01:50:38;;;;;;;51.43;47.03;;;3.60;99.90;;;;;;5034031;28;21012;-77
2021/11/29 01:53:06;;;;;;;51.83;47.17;;;3.50;99.90;;;;;;5034084;28;20451;-76
2021/11/29 01:55:34;;;;;;;52.90;48.47;;;3.50;99.90;;;;;;5033970;28;20516;-75
2021/11/29 01:58:00;;;;;;;51.30;46.93;;;3.50;99.90;;;;;;5033725;28;20609;-78
2021/11/29 02:00:30;;;;;;;53.87;48.87;;;3.50;99.90;;;;;;5033880;28;20453;-79
2021/11/29 02:02:58;;;;;;;51.83;47.33;;;3.50;99.90;;;;;;5033883;28;20453;-75
2021/11/29 02:05:27;;;;;;;52.00;47.63;;;3.50;99.90;;;;;;5033617;28;20511;-75
2021/11/29 02:07:54;;;;;;;53.33;48.37;;;3.50;99.90;;;;;;5033714;28;20491;-77
2021/11/29 02:10:24;;;;;;;52.60;47.63;;;3.50;99.90;;;;;;5033518;28;20453;-78
2021/11/29 02:12:51;;;;;;;52.70;47.70;;;3.50;99.90;;;;;;5033664;28;20833;-78
2021/11/29 02:15:18;;;;;;;51.83;47.07;;;3.50;99.90;;;;;;5033543;28;20457;-77
2021/11/29 02:17:46;;;;;;;53.40;48.20;;;3.50;99.90;;;;;;5033297;28;20488;-78
2021/11/29 02:20:16;;;;;;;54.63;49.90;;;3.50;99.90;;;;;;5033514;28;20461;-77
2021/11/29 02:22:44;;;;;;;55.90;50.10;;;3.50;99.90;;;;;;5033673;28;20507;-75
2021/11/29 02:25:11;;;;;;;54.83;49.67;;;3.50;99.90;;;;;;5033230;28;20485;-77
2021/11/29 02:27:39;;;;;;;53.30;48.60;;;3.60;99.90;;;;;;5033338;28;20453;-77
2021/11/29 02:30:07;;;;;;;52.97;48.10;;;3.60;99.90;;;;;;5033443;28;20445;-76
2021/11/29 02:32:33;;;;;;;55.43;50.53;;;3.70;99.90;;;;;;5033077;28;20499;-77
2021/11/29 02:35:00;;;;;;;54.03;49.13;;;3.70;99.90;;;;;;5032852;28;20472;-79
2021/11/29 02:37:27;;;;;;;52.03;47.20;;;3.70;99.90;;;;;;5033232;28;20486;-76
2021/11/29 02:39:55;;;;;;;52.57;47.93;;;3.70;99.90;;;;;;5033265;28;20449;-77
2021/11/29 02:42:22;;;;;;;53.83;48.97;;;3.70;99.90;;;;;;5032923;28;20499;-76
2021/11/29 02:44:49;;;;;;;54.30;49.63;;;3.70;99.90;;;;;;5032829;28;20523;-77
2021/11/29 02:47:15;;;;;;;54.57;49.47;;;3.70;99.90;;;;;;5033070;28;20742;-75
2021/11/29 02:49:42;;;;;;;53.00;48.00;;;3.60;99.90;;;;;;5032967;28;20523;-75
2021/11/29 02:52:11;;;;;;;54.40;49.40;;;3.60;99.90;;;;;;5032985;28;20452;-76
2021/11/29 02:54:40;;;;;;;52.03;47.23;;;3.50;99.90;;;;;;5032648;28;20502;-76
2021/11/29 02:57:10;;;;;;;54.67;49.30;;;3.50;99.90;;;;;;5032828;28;20491;-76
2021/11/29 02:59:39;;;;;;;51.77;47.27;;;3.50;99.90;;;;;;5032717;28;20858;-76
2021/11/29 03:02:09;;;;;;;53.80;48.90;;;3.50;99.90;;;;;;5032614;28;20817;-75
2021/11/29 03:04:38;;;;;;;53.37;48.57;;;3.50;99.90;;;;;;5032779;28;20452;-76
2021/11/29 03:07:05;;;;;;;56.57;51.27;;;3.60;99.90;;;;;;5032571;28;20452;-75
2021/11/29 03:09:33;;;;;;;56.77;51.43;;;3.60;99.90;;;;;;5032547;28;20511;-75
2021/11/29 03:12:01;;;;;;;56.50;51.10;;;3.60;99.90;;;;;;5032573;28;20455;-75
2021/11/29 03:14:29;;;;;;;55.73;50.57;;;3.70;99.90;;;;;;5032862;28;20452;-76
2021/11/29 03:16:57;;;;;;;58.17;52.90;;;3.70;99.90;;;;;;5032521;28;20557;-75
2021/11/29 03:19:28;;;;;;;56.83;51.50;;;3.70;99.90;;;;;;5032240;28;20458;-75
2021/11/29 03:21:55;;;;;;;56.03;50.87;;;3.60;99.90;;;;;;5032926;28;20487;-76
2021/11/29 03:24:22;;;;;;;58.00;52.33;;;3.60;99.90;;;;;;5032453;28;20522;-75
2021/11/29 03:26:49;;;;;;;57.00;51.63;;;3.60;99.90;;;;;;5032533;28;20924;-75
2021/11/29 03:29:19;;;;;;;58.27;52.57;;;3.60;99.90;;;;;;5032451;28;20461;-76
2021/11/29 03:31:51;;;;;;;56.17;50.87;;;3.60;99.90;;;;;;5032314;28;20459;-74
2021/11/29 03:34:18;;;;;;;57.43;52.03;;;3.60;99.90;;;;;;5032004;28;20461;-75
2021/11/29 03:36:47;;;;;;;57.17;51.53;;;3.60;99.90;;;;;;5032032;28;20490;-75
2021/11/29 03:39:16;;;;;;;53.73;48.80;;;3.50;99.90;;;;;;5031795;28;20471;-75
2021/11/29 03:41:44;;;;;;;52.20;47.40;;;3.50;99.90;;;;;;5032225;28;20481;-75
2021/11/29 03:44:11;;;;;;;52.60;47.70;;;3.50;99.90;;;;;;5031780;28;20483;-76
2021/11/29 03:46:38;;;;;;;51.23;46.67;;;3.40;99.90;;;;;;5031341;28;20499;-79
2021/11/29 03:49:07;;;;;;;52.70;47.80;;;3.30;99.90;;;;;;5031816;28;20457;-75
2021/11/29 03:51:34;;;;;;;53.57;48.17;;;3.20;99.90;;;;;;5031778;28;20514;-76
2021/11/29 03:54:00;;;;;;;53.60;48.40;;;3.30;99.90;;;;;;5031941;28;20459;-75
2021/11/29 03:56:27;;;;;;;52.30;47.30;;;3.30;99.90;;;;;;5031617;28;20449;-75
2021/11/29 03:58:54;;;;;;;51.23;46.50;;;3.20;99.90;;;;;;5031443;28;20859;-74
2021/11/29 04:01:20;;;;;;;52.00;47.13;;;3.20;99.90;;;;;;5031668;28;20458;-75
2021/11/29 04:03:47;;;;;;;50.07;45.20;;;3.20;99.90;;;;;;5031892;28;20555;-75
2021/11/29 04:06:15;;;;;;;48.23;43.83;;;3.30;99.90;;;;;;5031549;28;20454;-75
2021/11/29 04:08:42;;;;;;;48.70;44.17;;;3.30;99.90;;;;;;5031506;28;20447;-75
2021/11/29 04:11:09;;;;;;;48.80;44.03;;;3.40;99.90;;;;;;5031562;28;20650;-75
2021/11/29 04:13:36;;;;;;;48.97;44.63;;;3.40;99.90;;;;;;5031716;28;20448;-74
2021/11/29 04:16:03;;;;;;;46.77;42.27;;;3.50;99.90;;;;;;5031374;28;20452;-75
2021/11/29 04:18:30;;;;;;;47.03;42.33;;;3.40;99.90;;;;;;5031264;28;21284;-74
2021/11/29 04:20:57;;;;;;;44.07;40.03;;;3.40;99.90;;;;;;5031390;28;20451;-74
2021/11/29 04:23:25;;;;;;;45.20;40.90;;;3.40;99.90;;;;;;5031174;28;20460;-74
2021/11/29 04:25:55;;;;;;;45.70;41.40;;;3.50;99.90;;;;;;5031336;28;20502;-75
2021/11/29 04:28:22;;;;;;;44.87;40.77;;;3.60;99.90;;;;;;5031115;28;20447;-75
2021/11/29 04:30:49;;;;;;;44.70;40.20;;;3.60;99.90;;;;;;5031326;28;20481;-75
2021/11/29 04:33:16;;;;;;;45.27;40.87;;;3.60;99.90;;;;;;5031246;28;20513;-75
2021/11/29 04:35:43;;;;;;;45.07;40.67;;;3.60;99.90;;;;;;5031304;28;20463;-74
2021/11/29 04:38:10;;;;;;;42.13;38.27;;;3.50;99.90;;;;;;5030733;28;20526;-75
2021/11/29 04:40:38;;;;;;;42.67;38.60;;;3.40;99.90;;;;;;5030923;28;20608;-74
2021/11/29 04:43:05;;;;;;;43.67;39.60;;;3.50;99.90;;;;;;5031186;28;20453;-75
2021/11/29 04:45:33;;;;;;;41.77;37.77;;;3.50;99.90;;;;;;5030944;28;20487;-74
2021/11/29 04:48:00;;;;;;;44.53;40.60;;;3.50;99.90;;;;;;5030989;28;20942;-75
2021/11/29 04:50:27;;;;;;;42.60;38.67;;;3.60;99.90;;;;;;5030731;28;20934;-74
2021/11/29 04:52:54;;;;;;;45.67;41.27;;;3.50;99.90;;;;;;5031115;28;20451;-76
2021/11/29 04:55:21;;;;;;;43.30;39.07;;;3.50;99.90;;;;;;5030740;28;20449;-75
2021/11/29 04:57:49;;;;;;;44.43;39.77;;;3.60;99.90;;;;;;5031989;28;20498;-75
2021/11/29 05:00:19;;;;;;;44.43;39.90;;;3.50;99.90;;;;;;5034821;28;20457;-76
2021/11/29 05:02:46;;;;;;;44.13;39.80;;;3.60;99.90;;;;;;5035023;28;20445;-76
2021/11/29 05:05:13;;;;;;;41.33;37.50;;;3.50;99.90;;;;;;5035000;28;20444;-75
2021/11/29 05:07:40;;;;;;;40.77;36.77;;;3.60;99.90;;;;;;5035056;28;20464;-76
2021/11/29 05:10:08;;;;;;;41.70;37.77;;;3.60;99.90;;;;;;5034704;28;20453;-76
2021/11/29 05:12:35;;;;;;;42.47;37.97;;;3.60;99.90;;;;;;5034546;28;20453;-76
2021/11/29 05:15:05;;;;;;;41.90;37.90;;;3.60;99.90;;;;;;5034325;28;21010;-77
2021/11/29 05:17:31;;;;;;;39.23;35.47;;;3.70;99.90;;;;;;5034570;28;20503;-77
2021/11/29 05:19:58;;;;;;;41.83;37.87;;;3.70;99.90;;;;;;5034912;28;20502;-76
2021/11/29 05:22:25;;;;;;;41.13;37.40;;;3.70;99.90;;;;;;5034824;28;20456;-80
2021/11/29 05:24:52;;;;;;;44.83;40.33;;;3.70;99.90;;;;;;5034441;28;20875;-75
2021/11/29 05:27:18;;;;;;;42.70;38.70;;;3.70;99.90;;;;;;5034416;28;20441;-75
2021/11/29 05:29:45;;;;;;;41.73;38.03;;;3.70;99.90;;;;;;5034117;28;20943;-76
2021/11/29 05:32:13;;;;;;;41.47;37.70;;;3.70;99.90;;;;;;5034342;28;20448;-75
2021/11/29 05:34:40;;;;;;;42.00;38.13;;;3.60;99.90;;;;;;5034564;28;20443;-77
2021/11/29 05:37:06;;;;;;;41.37;37.63;;;3.60;99.90;;;;;;5034024;28;20451;-77
2021/11/29 05:39:33;;;;;;;40.23;35.87;;;3.60;99.90;;;;;;5033815;28;20998;-77
2021/11/29 05:42:00;;;;;;;43.80;39.77;;;3.50;99.90;;;;;;5034203;28;20469;-77
2021/11/29 05:44:27;;;;;;;43.07;39.27;;;3.50;99.90;;;;;;5034080;28;20480;-78
2021/11/29 05:46:53;;;;;;;42.67;39.17;;;3.50;99.90;;;;;;5033898;28;20460;-77
2021/11/29 05:49:21;;;;;;;40.97;37.37;;;3.40;99.90;;;;;;5034306;28;20449;-77
2021/11/29 05:51:48;;;;;;;43.50;38.87;;;3.40;99.90;;;;;;5033620;28;20818;-78
2021/11/29 05:54:15;;;;;;;43.57;39.57;;;3.40;99.90;;;;;;5033931;28;20462;-77
2021/11/29 05:56:41;;;;;;;45.60;41.40;;;3.40;99.90;;;;;;5034111;28;20457;-77
2021/11/29 05:59:08;;;;;;;45.73;41.07;;;3.40;99.90;;;;;;5033795;28;20547;-79
2021/11/29 06:01:35;;;;;;;45.03;40.77;;;3.40;99.90;;;;;;5033881;28;20451;-78
2021/11/29 06:04:02;;;;;;;44.63;40.57;;;3.40;99.90;;;;;;5033778;28;20543;-78
2021/11/29 06:06:30;;;;;;;44.70;40.27;;;3.40;99.90;;;;;;5033696;28;20499;-75
2021/11/29 06:08:57;;;;;;;44.97;40.90;;;3.30;99.90;;;;;;5033342;28;20814;-80
2021/11/29 06:11:23;;;;;;;44.60;40.50;;;3.40;99.90;;;;;;5033600;28;20445;-79
2021/11/29 06:13:52;;;;;;;45.43;41.00;;;3.30;99.90;;;;;;5033706;28;20459;-77
2021/11/29 06:16:18;;;;;;;45.23;41.27;;;3.40;99.90;;;;;;5033697;28;20453;-78
2021/11/29 06:18:45;;;;;;;45.63;41.47;;;3.40;99.90;;;;;;5033409;28;20489;-77
2021/11/29 06:21:12;;;;;;;41.20;37.40;;;3.40;99.90;;;;;;5033557;28;20455;-76
2021/11/29 06:23:40;;;;;;;42.60;38.90;;;3.40;99.90;;;;;;5033291;28;20445;-77
2021/11/29 06:26:06;;;;;;;41.53;37.63;;;3.40;99.90;;;;;;5033414;28;20795;-76
2021/11/29 06:28:33;;;;;;;42.03;38.27;;;3.30;99.90;;;;;;5033441;28;20499;-76
2021/11/29 06:31:00;;;;;;;44.83;40.33;;;3.40;99.90;;;;;;5033254;28;20981;-76
2021/11/29 06:33:27;;;;;;;41.70;37.93;;;3.30;99.90;;;;;;5033451;28;20453;-76
2021/11/29 06:35:57;;;;;;;43.90;39.40;;;3.30;99.90;;;;;;5033092;28;20579;-76
2021/11/29 06:38:26;;;;;;;41.83;38.20;;;3.30;99.90;;;;;;5033333;28;20484;-76
2021/11/29 06:40:54;;;;;;;42.10;38.13;;;3.40;99.90;;;;;;5033070;28;20455;-75
2021/11/29 06:43:23;;;;;;;42.90;38.70;;;3.40;99.90;;;;;;5033190;28;20888;-75
2021/11/29 06:45:49;;;;;;;41.03;37.13;;;3.30;99.90;;;;;;5032927;28;20480;-75
2021/11/29 06:48:17;;;;;;;40.73;36.87;;;3.30;99.90;;;;;;5032748;28;20455;-75
2021/11/29 06:50:45;;;;;;;40.27;36.27;;;3.30;99.90;;;;;;5032959;28;20464;-75
2021/11/29 06:53:12;;;;;;;40.80;37.30;;;3.30;99.90;;;;;;5032721;28;20513;-77
2021/11/29 06:55:40;;;;;;;39.00;35.50;;;3.30;99.90;;;;;;5032957;28;20496;-76
2021/11/29 06:58:08;;;;;;;38.57;34.93;;;3.40;99.90;;;;;;5032769;28;21014;-76
2021/11/29 07:00:35;;;;;;;36.77;33.10;;;3.50;99.90;;;;;;5032590;28;20463;-76
2021/11/29 07:03:02;;;;;;;37.70;34.33;;;3.40;99.90;;;;;;5032496;28;20502;-76
2021/11/29 07:05:29;;;;;;;35.83;32.60;;;3.30;99.90;;;;;;5032664;28;20443;-77
2021/11/29 07:07:57;;;;;;;37.00;33.80;;;3.30;99.90;;;;;;5032564;28;20481;-75
2021/11/29 07:10:26;;;;;;;35.20;32.07;;;3.30;99.90;;;;;;5032380;28;20451;-74
2021/11/29 07:12:54;;;;;;;33.77;30.93;;;3.30;99.90;;;;;;5032662;28;21242;-74
2021/11/29 07:15:24;;;;;;;33.23;30.43;;;3.30;99.90;;;;;;5032400;28;20542;-73
2021/11/29 07:17:51;;;;;;;34.17;30.67;;;3.20;99.90;;;;;;5032314;28;20484;-74
2021/11/29 07:20:19;;;;;;;34.83;31.13;;;3.20;99.90;;;;;;5032234;28;21172;-74
2021/11/29 07:22:46;;;;;;;31.50;28.90;;;3.30;99.90;;;;;;5030745;28;20460;-75
2021/11/29 07:25:14;;;;;;;29.37;26.87;;;3.50;99.90;;;;;;5032193;28;20452;-78
2021/11/29 07:27:41;;;;;;;29.10;26.50;;;3.40;99.90;;;;;;5032414;28;20461;-79
2021/11/29 07:30:10;;;;;;;28.30;25.90;;;3.40;99.90;;;;;;5032061;28;20445;-75
2021/11/29 07:32:38;;;;;;;27.90;25.20;;;3.50;99.90;;;;;;5031949;28;21186;-79
2021/11/29 07:35:07;;;;;;;26.57;24.40;;;3.60;99.90;;;;;;5031968;28;20472;-77
2021/11/29 07:37:34;;;;;;;26.53;24.20;;;3.60;99.90;;;;;;5031885;28;21195;-76
2021/11/29 07:40:02;;;;;;;27.20;24.30;;;3.50;99.90;;;;;;5032006;28;20456;-78
2021/11/29 07:42:30;;;;;;;24.20;21.80;;;3.60;99.90;;;;;;5031854;28;20464;-77
2021/11/29 07:44:57;;;;;;;25.50;23.00;;;3.60;99.90;;;;;;5031622;28;20484;-77
2021/11/29 07:47:24;;;;;;;21.97;20.17;;;3.60;99.90;;;;;;5031708;28;20451;-76
2021/11/29 07:49:52;;;;;;;24.40;21.00;;;3.70;99.90;;;;;;5032046;28;20475;-76
2021/11/29 07:52:19;;;;;;;22.97;21.00;;;3.70;99.90;;;;;;5031642;28;20972;-77
2021/11/29 07:54:46;;;;;;;22.30;19.90;;;3.80;99.90;;;;;;5031622;28;20453;-76
2021/11/29 07:57:16;;;;;;;22.97;20.40;;;3.80;99.90;;;;;;5031425;28;20448;-76
2021/11/29 07:59:43;;;;;;;21.40;19.30;;;3.90;99.90;;;;;;5031450;28;20496;-78
2021/11/29 08:02:10;;;;;;;20.63;18.63;;;3.90;99.90;;;;;;5031596;28;20537;-78
2021/11/29 08:04:36;;;;;;;22.70;20.77;;;3.90;99.90;;;;;;5031525;28;20689;-77
2021/11/29 08:07:04;;;;;;;20.90;19.20;;;3.90;99.90;;;;;;5031604;28;20458;-76
2021/11/29 08:09:31;;;;;;;21.73;20.10;;;3.80;99.90;;;;;;5031090;28;20445;-74
2021/11/29 08:11:58;;;;;;;23.83;18.80;;;3.80;99.90;;;;;;5031941;28;20790;-74
2021/11/29 08:14:24;;;;;;;20.53;18.83;;;3.80;99.90;;;;;;5031465;28;20465;-81
2021/11/29 08:16:51;;;;;;;21.20;19.17;;;3.80;99.90;;;;;;5031257;28;20461;-75
2021/11/29 08:19:18;;;;;;;21.30;19.10;;;3.70;99.90;;;;;;5031230;28;20860;-76
2021/11/29 08:21:45;;;;;;;20.13;18.40;;;3.70;99.90;;;;;;5031333;28;20458;-75
2021/11/29 08:24:13;;;;;;;20.07;17.40;;;3.70;99.90;;;;;;5031288;28;20452;-75
2021/11/29 08:26:39;;;;;;;21.70;19.50;;;3.60;99.90;;;;;;5031424;28;20449;-74
2021/11/29 08:29:06;;;;;;;18.63;16.83;;;3.60;99.90;;;;;;5031528;28;20811;-75
2021/11/29 08:31:33;;;;;;;18.50;16.80;;;3.70;99.90;;;;;;5031388;28;21036;-75
2021/11/29 08:33:59;;;;;;;21.83;19.87;;;3.90;99.90;;;;;;5031109;28;20461;-74
2021/11/29 08:36:27;;;;;;;18.53;16.93;;;4.00;99.90;;;;;;5030862;28;20469;-76
2021/11/29 08:38:54;;;;;;;19.93;18.33;;;4.20;99.90;;;;;;5030921;28;21133;-80
2021/11/29 08:41:22;;;;;;;19.20;17.30;;;4.20;99.90;;;;;;5031069;28;20453;-75
2021/11/29 08:43:50;;;;;;;22.73;19.07;;;4.40;99.90;;;;;;5030759;28;20445;-78
2021/11/29 08:46:17;;;;;;;18.03;16.60;;;4.40;99.90;;;;;;5031105;28;20453;-79
2021/11/29 08:48:44;;;;;;;18.07;16.30;;;4.70;99.90;;;;;;5030993;28;20453;-78
2021/11/29 08:51:10;;;;;;;17.77;16.13;;;4.80;99.90;;;;;;5031025;28;20503;-79
2021/11/29 08:53:38;;;;;;;17.90;16.10;;;5.00;99.90;;;;;;5030908;28;20869;-79
2021/11/29 08:56:06;;;;;;;18.33;16.70;;;5.10;99.90;;;;;;5031330;28;20449;-77
2021/11/29 08:58:34;;;;;;;17.77;16.17;;;5.40;99.90;;;;;;5030725;28;20585;-76
2021/11/29 09:01:01;;;;;;;17.50;16.23;;;6.20;99.90;;;;;;5030738;28;20510;-76
2021/11/29 09:03:28;;;;;;;16.47;15.27;;;6.70;99.90;;;;;;5031029;28;20456;-78
2021/11/29 09:05:56;;;;;;;18.20;16.23;;;6.90;99.90;;;;;;5030691;28;20429;-75
2021/11/29 09:08:23;;;;;;;16.80;15.60;;;7.00;99.90;;;;;;5030782;28;20463;-76
2021/11/29 09:10:50;;;;;;;17.53;16.33;;;7.00;99.90;;;;;;5030726;28;20455;-75
2021/11/29 09:13:17;;;;;;;16.67;15.00;;;6.90;99.90;;;;;;5030394;28;20452;-76
2021/11/29 09:15:46;;;;;;;17.13;15.60;;;7.10;99.90;;;;;;5030380;28;20449;-76
2021/11/29 09:18:13;;;;;;;15.93;14.50;;;7.20;99.90;;;;;;5030339;28;20512;-75
2021/11/29 09:20:41;;;;;;;14.97;14.07;;;6.80;99.90;;;;;;5030367;28;20442;-75
2021/11/29 09:23:08;;;;;;;16.77;15.20;;;6.60;99.90;;;;;;5030234;28;20504;-76
2021/11/29 09:25:41;;;;;;;18.40;16.33;;;6.60;99.90;;;;;;5030204;28;20454;-76
2021/11/29 09:28:08;;;;;;;17.67;16.40;;;6.50;99.90;;;;;;5030170;28;20471;-76
2021/11/29 09:30:35;;;;;;;16.10;14.77;;;7.10;99.90;;;;;;5030219;28;20459;-76
2021/11/29 09:33:03;;;;;;;14.87;13.97;;;8.50;99.90;;;;;;5030030;28;20959;-76
2021/11/29 09:35:30;;;;;;;14.50;13.70;;;9.40;99.90;;;;;;5029799;28;20473;-76
2021/11/29 09:37:58;;;;;;;14.43;13.33;;;9.70;99.90;;;;;;5029921;28;20510;-76
2021/11/29 09:40:27;;;;;;;14.20;13.50;;;9.50;99.90;;;;;;5029929;28;20824;-75
2021/11/29 09:42:54;;;;;;;14.20;13.40;;;9.90;99.90;;;;;;5029905;28;20449;-75
2021/11/29 09:45:23;;;;;;;15.27;14.20;;;10.00;98.70;;;;;;5031560;28;20499;-75
2021/11/29 09:47:50;;;;;;;14.43;13.43;;;10.20;98.60;;;;;;5033604;28;20456;-75
2021/11/29 09:50:19;;;;;;;14.23;13.33;;;10.10;98.80;;;;;;5033744;28;20475;-76
2021/11/29 09:52:46;;;;;;;13.90;12.90;;;10.60;97.80;;;;;;5033563;28;20806;-76
2021/11/29 09:55:15;;;;;;;13.50;12.50;;;10.30;97.00;;;;;;5033730;28;20464;-76
2021/11/29 09:57:43;;;;;;;14.40;13.60;;;10.70;97.00;;;;;;5033518;28;20445;-76
2021/11/29 10:00:14;;;;;;;15.03;13.90;;;11.20;95.90;;;;;;5033091;28;20488;-76
2021/11/29 10:02:41;;;;;;;14.27;13.23;;;11.30;95.70;;;;;;5033500;28;20456;-76
2021/11/29 10:05:08;;;;;;;16.27;15.03;;;11.60;96.20;;;;;;5033128;28;20461;-76
2021/11/29 10:07:38;;;;;;;14.53;13.70;;;11.60;94.40;;;;;;5033262;28;20453;-76
2021/11/29 10:10:13;;;;;;;12.87;12.00;;;10.20;95.70;;;;;;5033187;28;20449;-75
2021/11/29 10:12:39;;;;;;;13.50;12.60;;;9.10;98.70;;;;;;5033132;28;20542;-76
2021/11/29 10:15:19;;;;;;;13.17;12.37;;;9.00;99.80;;;;;;5032956;28;20947;-75
2021/11/29 10:17:47;;;;;;;13.47;12.77;;;9.30;99.60;;;;;;5033129;28;20484;-75
2021/11/29 10:20:14;;;;;;;13.43;12.47;;;9.50;99.90;;;;;;5032775;28;20492;-75
2021/11/29 10:22:56;;;;;;;14.40;13.17;;;9.50;98.80;;;;;;5032566;28;20483;-75
2021/11/29 10:25:23;;;;;;;15.57;14.33;;;9.20;98.30;;;;;;5032700;28;20444;-75
2021/11/29 10:27:51;;;;;;;15.27;14.20;;;8.90;99.70;;;;;;5032602;28;20447;-75
2021/11/29 10:30:19;;;;;;;14.33;13.43;;;8.70;99.90;;;;;;5032483;28;20449;-76
2021/11/29 10:32:48;;;;;;;14.50;13.40;;;8.60;99.90;;;;;;5032629;28;20445;-75
2021/11/29 10:35:22;;;;;;;14.87;13.67;;;8.70;99.90;;;;;;5032159;28;20481;-75
2021/11/29 10:37:52;;;;;;;13.33;12.43;;;8.60;99.90;;;;;;5032397;28;20456;-75
2021/11/29 10:40:20;;;;;;;14.60;13.70;;;8.90;99.90;;;;;;5032435;28;20488;-75
2021/11/29 10:42:48;;;;;;;16.00;14.40;;;9.20;99.70;;;;;;5032357;28;20451;-75
2021/11/29 10:45:22;;;;;;;13.77;12.63;;;8.70;98.70;;;;;;5032113;28;20484;-76
2021/11/29 10:47:50;;;;;;;12.80;12.00;;;8.40;99.70;;;;;;5032412;28;20489;-75
2021/11/29 10:50:17;;;;;;;12.17;11.47;;;8.30;99.90;;;;;;5032034;28;20464;-77
2021/11/29 10:52:47;;;;;;;13.70;12.90;;;8.20;99.90;;;;;;5032131;28;20461;-75
2021/11/29 10:55:15;;;;;;;13.07;12.17;;;8.20;99.90;;;;;;5031883;28;20449;-75
2021/11/29 10:57:47;;;;;;;13.97;12.97;;;7.90;99.90;;;;;;5032059;28;20578;-75
2021/11/29 11:00:17;;;;;;;12.53;11.83;;;7.90;99.90;;;;;;5031796;28;20480;-76
2021/11/29 11:03:01;;;;;;;15.27;13.80;;;8.40;99.90;;;;;;5032037;28;20464;-75
2021/11/29 11:05:28;;;;;;;13.97;13.20;;;9.20;99.80;;;;;;5032115;28;20515;-75
2021/11/29 11:08:08;;;;;;;14.03;13.13;;;9.00;99.70;;;;;;5031937;28;20446;-75
2021/11/29 11:10:36;;;;;;;13.27;12.07;;;7.90;99.90;;;;;;5032202;28;20934;-74
2021/11/29 11:13:04;;;;;;;12.50;11.63;;;7.40;99.90;;;;;;5032106;28;20568;-75
2021/11/29 11:15:43;;;;;;;14.20;13.30;;;7.20;99.90;;;;;;5032062;28;20540;-76
2021/11/29 11:18:11;;;;;;;13.50;12.70;;;6.90;99.90;;;;;;5031725;28;20448;-74
2021/11/29 11:20:38;;;;;;;13.07;12.23;;;6.80;99.90;;;;;;5031603;28;20488;-74
2021/11/29 11:23:05;;;;;;;12.70;12.00;;;6.60;99.90;;;;;;5031648;28;20825;-73
2021/11/29 11:25:42;;;;;;;13.87;12.97;;;6.60;99.90;;;;;;5031586;28;20879;-73
2021/11/29 11:28:10;;;;;;;13.07;12.27;;;6.40;99.90;;;;;;5031743;28;20461;-73
2021/11/29 11:30:40;;;;;;;13.23;12.53;;;6.00;99.90;;;;;;5031680;28;20566;-74
2021/11/29 11:33:09;;;;;;;15.20;14.30;;;6.00;99.90;;;;;;5031522;28;20456;-74
2021/11/29 11:35:38;;;;;;;13.83;13.03;;;5.90;99.90;;;;;;5031422;28;20484;-74
2021/11/29 11:38:10;;;;;;;13.53;12.73;;;5.70;99.90;;;;;;5031573;28;20452;-75
2021/11/29 11:40:40;;;;;;;14.30;13.40;;;6.00;99.90;;;;;;5031280;28;20499;-76
2021/11/29 11:43:11;;;;;;;14.03;13.23;;;7.00;99.90;;;;;;5026042;28;20464;-74
2021/11/29 11:45:39;;;;;;;12.70;11.87;;;7.70;99.90;;;;;;5012236;28;20497;-73
2021/11/29 11:48:09;;;;;;;12.27;11.57;;;7.60;99.90;;;;;;5012033;28;20476;-74
2021/11/29 11:50:38;;;;;;;14.63;13.63;;;7.80;99.90;;;;;;5011944;28;20450;-73
2021/11/29 11:53:07;;;;;;;12.80;11.90;;;8.00;99.90;;;;;;5011832;28;20448;-74
2021/11/29 11:55:37;;;;;;;14.43;13.30;;;8.40;99.90;;;;;;5013031;28;20468;-74
2021/11/29 11:58:10;;;;;;;14.00;13.20;;;8.50;99.90;;;;;;5018495;28;20458;-74
2021/11/29 12:00:41;;;;;;;13.17;12.20;;;8.40;99.90;;;;;;5011627;28;20492;-74
2021/11/29 12:03:14;;;;;;;13.07;12.17;;;8.30;99.90;;;;;;5011447;28;20473;-75
2021/11/29 12:05:53;;;;;;;14.43;13.20;;;7.90;99.90;;;;;;5011622;28;20454;-74
2021/11/29 12:08:46;;;;;;;14.17;13.17;;;7.30;99.90;;;;;;5010924;28;20460;-74
2021/11/29 12:11:35;;;;;;;12.93;12.10;;;7.40;99.90;;;;;;5001727;28;20515;-72
2021/11/29 12:14:11;;;;;;;13.43;12.50;;;7.90;99.90;;;;;;5025917;28;20476;-74
2021/11/29 12:16:40;;;;;;;13.53;12.70;;;7.70;99.90;;;;;;5014639;28;20883;-74
2021/11/29 12:19:09;;;;;;;13.63;12.63;;;7.70;99.90;;;;;;5030815;28;20835;-73
2021/11/29 12:21:37;;;;;;;14.03;13.03;;;7.50;99.90;;;;;;5031149;28;20950;-75
2021/11/29 12:24:11;;;;;;;14.87;13.60;;;7.20;99.90;;;;;;5031092;28;20482;-75
2021/11/29 12:27:03;;;;;;;13.50;12.40;;;7.10;99.90;;;;;;5031216;28;20461;-76
2021/11/29 12:29:51;;;;;;;13.37;12.40;;;7.00;99.90;;;;;;5030830;28;20459;-75
2021/11/29 12:32:19;;;;;;;13.53;12.53;;;6.90;99.90;;;;;;5030945;28;20445;-75
2021/11/29 12:35:02;;;;;;;13.13;12.23;;;6.60;99.90;;;;;;5030875;28;20822;-75
2021/11/29 12:37:31;;;;;;;13.23;12.10;;;6.40;99.90;;;;;;5031035;28;20443;-75
2021/11/29 12:40:01;;;;;;;13.37;12.37;;;6.00;99.90;;;;;;5030597;28;20482;-73
2021/11/29 12:42:58;;;;;;;13.10;11.80;;;6.10;99.90;;;;;;5030601;28;20466;-75
2021/11/29 12:45:33;;;;;;;14.20;13.30;;;5.90;99.90;;;;;;5030749;28;20481;-74
2021/11/29 12:48:04;;;;;;;15.40;14.10;;;5.80;99.90;;;;;;5030949;28;20450;-74
2021/11/29 12:50:35;;;;;;;16.00;14.87;;;5.80;99.90;;;;;;5030984;28;20504;-74